sensor_id;sensor_type;location;lat;lon;timestamp;P1;durP1;ratioP1;P2;durP2;ratioP2
76380;SDS011;65202;52.520;10.528;2024-01-30T00:00:51;17.27;;;11.07;;
76380;SDS011;65202;52.520;10.528;2024-01-30T00:03:18;16.67;;;10.05;;
76380;SDS011;65202;52.520;10.528;2024-01-30T00:05:46;17.15;;;11.18;;
76380;SDS011;65202;52.520;10.528;2024-01-30T00:08:13;15.65;;;10.15;;
76380;SDS011;65202;52.520;10.528;2024-01-30T00:10:41;15.40;;;10.05;;
76380;SDS011;65202;52.520;10.528;2024-01-30T00:13:09;15.45;;;9.82;;
76380;SDS011;65202;52.520;10.528;2024-01-30T00:15:36;16.60;;;10.18;;
76380;SDS011;65202;52.520;10.528;2024-01-30T00:18:04;19.02;;;9.88;;
76380;SDS011;65202;52.520;10.528;2024-01-30T00:20:31;16.48;;;9.88;;
76380;SDS011;65202;52.520;10.528;2024-01-30T00:22:59;17.45;;;10.00;;
76380;SDS011;65202;52.520;10.528;2024-01-30T00:25:26;18.77;;;11.05;;
76380;SDS011;65202;52.520;10.528;2024-01-30T00:27:53;15.55;;;10.02;;
76380;SDS011;65202;52.520;10.528;2024-01-30T00:30:21;17.58;;;10.52;;
76380;SDS011;65202;52.520;10.528;2024-01-30T00:32:48;17.17;;;10.40;;
76380;SDS011;65202;52.520;10.528;2024-01-30T00:35:16;20.35;;;11.10;;
76380;SDS011;65202;52.520;10.528;2024-01-30T00:37:43;15.13;;;10.27;;
76380;SDS011;65202;52.520;10.528;2024-01-30T00:40:11;15.82;;;9.93;;
76380;SDS011;65202;52.520;10.528;2024-01-30T00:42:43;25.67;;;15.30;;
76380;SDS011;65202;52.520;10.528;2024-01-30T00:45:12;31.30;;;15.85;;
76380;SDS011;65202;52.520;10.528;2024-01-30T00:47:41;16.63;;;10.68;;
76380;SDS011;65202;52.520;10.528;2024-01-30T00:50:10;16.92;;;11.05;;
76380;SDS011;65202;52.520;10.528;2024-01-30T00:52:38;16.40;;;10.52;;
76380;SDS011;65202;52.520;10.528;2024-01-30T00:55:06;19.40;;;10.70;;
76380;SDS011;65202;52.520;10.528;2024-01-30T00:57:33;16.50;;;11.15;;
76380;SDS011;65202;52.520;10.528;2024-01-30T01:00:01;17.77;;;10.68;;
76380;SDS011;65202;52.520;10.528;2024-01-30T01:02:28;17.17;;;11.02;;
76380;SDS011;65202;52.520;10.528;2024-01-30T01:04:56;19.65;;;11.65;;
76380;SDS011;65202;52.520;10.528;2024-01-30T01:07:23;19.58;;;11.38;;
76380;SDS011;65202;52.520;10.528;2024-01-30T01:09:51;19.67;;;10.98;;
76380;SDS011;65202;52.520;10.528;2024-01-30T01:12:19;15.02;;;11.00;;
76380;SDS011;65202;52.520;10.528;2024-01-30T01:14:46;16.58;;;11.38;;
76380;SDS011;65202;52.520;10.528;2024-01-30T01:17:14;19.00;;;11.07;;
76380;SDS011;65202;52.520;10.528;2024-01-30T01:19:41;19.40;;;10.43;;
76380;SDS011;65202;52.520;10.528;2024-01-30T01:22:09;18.13;;;11.07;;
76380;SDS011;65202;52.520;10.528;2024-01-30T01:24:36;18.95;;;10.82;;
76380;SDS011;65202;52.520;10.528;2024-01-30T01:27:04;21.05;;;11.48;;
76380;SDS011;65202;52.520;10.528;2024-01-30T01:29:32;17.67;;;11.18;;
76380;SDS011;65202;52.520;10.528;2024-01-30T01:32:00;18.17;;;11.75;;
76380;SDS011;65202;52.520;10.528;2024-01-30T01:34:27;20.10;;;12.48;;
76380;SDS011;65202;52.520;10.528;2024-01-30T01:36:57;19.92;;;11.57;;
76380;SDS011;65202;52.520;10.528;2024-01-30T01:39:24;21.23;;;11.10;;
76380;SDS011;65202;52.520;10.528;2024-01-30T01:41:52;14.90;;;10.73;;
76380;SDS011;65202;52.520;10.528;2024-01-30T01:44:19;18.90;;;11.07;;
76380;SDS011;65202;52.520;10.528;2024-01-30T01:46:47;17.83;;;11.35;;
76380;SDS011;65202;52.520;10.528;2024-01-30T01:49:14;18.20;;;12.00;;
76380;SDS011;65202;52.520;10.528;2024-01-30T01:51:42;21.65;;;12.55;;
76380;SDS011;65202;52.520;10.528;2024-01-30T01:54:12;17.00;;;10.57;;
76380;SDS011;65202;52.520;10.528;2024-01-30T01:56:41;18.98;;;11.82;;
76380;SDS011;65202;52.520;10.528;2024-01-30T01:59:10;19.17;;;11.93;;
76380;SDS011;65202;52.520;10.528;2024-01-30T02:01:38;17.77;;;11.52;;
76380;SDS011;65202;52.520;10.528;2024-01-30T02:04:07;16.92;;;11.63;;
76380;SDS011;65202;52.520;10.528;2024-01-30T02:06:35;21.35;;;12.10;;
76380;SDS011;65202;52.520;10.528;2024-01-30T02:09:04;22.17;;;11.93;;
76380;SDS011;65202;52.520;10.528;2024-01-30T02:11:31;19.48;;;11.90;;
76380;SDS011;65202;52.520;10.528;2024-01-30T02:14:03;18.60;;;12.20;;
76380;SDS011;65202;52.520;10.528;2024-01-30T02:16:31;17.05;;;11.32;;
76380;SDS011;65202;52.520;10.528;2024-01-30T02:18:59;17.58;;;11.60;;
76380;SDS011;65202;52.520;10.528;2024-01-30T02:21:29;20.00;;;11.98;;
76380;SDS011;65202;52.520;10.528;2024-01-30T02:23:57;17.88;;;11.73;;
76380;SDS011;65202;52.520;10.528;2024-01-30T02:26:26;19.58;;;11.80;;
76380;SDS011;65202;52.520;10.528;2024-01-30T02:28:54;18.70;;;11.35;;
76380;SDS011;65202;52.520;10.528;2024-01-30T02:31:21;20.35;;;11.95;;
76380;SDS011;65202;52.520;10.528;2024-01-30T02:33:49;18.42;;;11.45;;
76380;SDS011;65202;52.520;10.528;2024-01-30T02:36:16;21.00;;;12.10;;
76380;SDS011;65202;52.520;10.528;2024-01-30T02:38:43;24.02;;;12.43;;
76380;SDS011;65202;52.520;10.528;2024-01-30T02:41:13;16.35;;;10.98;;
76380;SDS011;65202;52.520;10.528;2024-01-30T02:43:41;21.85;;;11.80;;
76380;SDS011;65202;52.520;10.528;2024-01-30T02:46:08;23.80;;;12.23;;
76380;SDS011;65202;52.520;10.528;2024-01-30T02:48:36;19.55;;;12.02;;
76380;SDS011;65202;52.520;10.528;2024-01-30T02:51:05;19.58;;;12.45;;
76380;SDS011;65202;52.520;10.528;2024-01-30T02:53:33;18.02;;;11.95;;
76380;SDS011;65202;52.520;10.528;2024-01-30T02:56:00;24.98;;;13.82;;
76380;SDS011;65202;52.520;10.528;2024-01-30T02:58:29;20.70;;;12.63;;
76380;SDS011;65202;52.520;10.528;2024-01-30T03:00:57;25.33;;;13.23;;
76380;SDS011;65202;52.520;10.528;2024-01-30T03:03:24;22.92;;;13.00;;
76380;SDS011;65202;52.520;10.528;2024-01-30T03:05:51;19.90;;;12.38;;
76380;SDS011;65202;52.520;10.528;2024-01-30T03:08:19;22.13;;;12.55;;
76380;SDS011;65202;52.520;10.528;2024-01-30T03:10:47;21.23;;;13.75;;
76380;SDS011;65202;52.520;10.528;2024-01-30T03:13:14;20.48;;;13.80;;
76380;SDS011;65202;52.520;10.528;2024-01-30T03:15:42;20.50;;;12.52;;
76380;SDS011;65202;52.520;10.528;2024-01-30T03:18:09;21.05;;;13.82;;
76380;SDS011;65202;52.520;10.528;2024-01-30T03:20:36;22.38;;;13.95;;
76380;SDS011;65202;52.520;10.528;2024-01-30T03:23:04;22.70;;;14.05;;
76380;SDS011;65202;52.520;10.528;2024-01-30T03:25:32;19.00;;;14.00;;
76380;SDS011;65202;52.520;10.528;2024-01-30T03:27:59;23.90;;;13.57;;
76380;SDS011;65202;52.520;10.528;2024-01-30T03:30:27;23.48;;;13.75;;
76380;SDS011;65202;52.520;10.528;2024-01-30T03:32:54;26.02;;;14.65;;
76380;SDS011;65202;52.520;10.528;2024-01-30T03:35:22;23.15;;;14.70;;
76380;SDS011;65202;52.520;10.528;2024-01-30T03:37:49;25.40;;;14.77;;
76380;SDS011;65202;52.520;10.528;2024-01-30T03:40:17;23.42;;;14.13;;
76380;SDS011;65202;52.520;10.528;2024-01-30T03:42:44;22.55;;;14.07;;
76380;SDS011;65202;52.520;10.528;2024-01-30T03:45:12;47.53;;;28.55;;
76380;SDS011;65202;52.520;10.528;2024-01-30T03:47:39;26.83;;;17.77;;
76380;SDS011;65202;52.520;10.528;2024-01-30T03:50:10;25.20;;;14.02;;
76380;SDS011;65202;52.520;10.528;2024-01-30T03:52:38;25.30;;;15.52;;
76380;SDS011;65202;52.520;10.528;2024-01-30T03:55:06;22.85;;;15.05;;
76380;SDS011;65202;52.520;10.528;2024-01-30T03:57:34;20.67;;;13.50;;
76380;SDS011;65202;52.520;10.528;2024-01-30T04:00:01;25.67;;;14.85;;
76380;SDS011;65202;52.520;10.528;2024-01-30T04:02:38;24.88;;;14.27;;
76380;SDS011;65202;52.520;10.528;2024-01-30T04:05:05;22.23;;;14.70;;
76380;SDS011;65202;52.520;10.528;2024-01-30T04:07:33;24.52;;;15.02;;
76380;SDS011;65202;52.520;10.528;2024-01-30T04:10:01;23.33;;;14.77;;
76380;SDS011;65202;52.520;10.528;2024-01-30T04:12:31;24.70;;;15.57;;
76380;SDS011;65202;52.520;10.528;2024-01-30T04:14:59;24.98;;;15.48;;
76380;SDS011;65202;52.520;10.528;2024-01-30T04:17:26;26.85;;;15.02;;
76380;SDS011;65202;52.520;10.528;2024-01-30T04:19:56;25.92;;;15.48;;
76380;SDS011;65202;52.520;10.528;2024-01-30T04:22:23;22.73;;;15.02;;
76380;SDS011;65202;52.520;10.528;2024-01-30T04:24:51;37.63;;;15.40;;
76380;SDS011;65202;52.520;10.528;2024-01-30T04:27:18;25.33;;;15.05;;
76380;SDS011;65202;52.520;10.528;2024-01-30T04:29:46;24.13;;;14.45;;
76380;SDS011;65202;52.520;10.528;2024-01-30T04:32:13;22.25;;;14.45;;
76380;SDS011;65202;52.520;10.528;2024-01-30T04:34:41;22.00;;;13.88;;
76380;SDS011;65202;52.520;10.528;2024-01-30T04:37:09;24.08;;;15.05;;
76380;SDS011;65202;52.520;10.528;2024-01-30T04:39:37;22.92;;;14.05;;
76380;SDS011;65202;52.520;10.528;2024-01-30T04:42:05;22.17;;;13.15;;
76380;SDS011;65202;52.520;10.528;2024-01-30T04:44:35;23.38;;;14.00;;
76380;SDS011;65202;52.520;10.528;2024-01-30T04:47:03;21.33;;;13.73;;
76380;SDS011;65202;52.520;10.528;2024-01-30T04:49:32;21.73;;;13.05;;
76380;SDS011;65202;52.520;10.528;2024-01-30T04:52:00;24.50;;;13.82;;
76380;SDS011;65202;52.520;10.528;2024-01-30T04:54:28;23.10;;;13.25;;
76380;SDS011;65202;52.520;10.528;2024-01-30T04:56:55;23.92;;;13.55;;
76380;SDS011;65202;52.520;10.528;2024-01-30T04:59:23;21.75;;;13.88;;
76380;SDS011;65202;52.520;10.528;2024-01-30T05:01:50;20.85;;;13.30;;
76380;SDS011;65202;52.520;10.528;2024-01-30T05:04:18;20.17;;;14.00;;
76380;SDS011;65202;52.520;10.528;2024-01-30T05:06:45;23.70;;;14.25;;
76380;SDS011;65202;52.520;10.528;2024-01-30T05:09:13;21.30;;;13.80;;
76380;SDS011;65202;52.520;10.528;2024-01-30T05:11:40;19.23;;;13.15;;
76380;SDS011;65202;52.520;10.528;2024-01-30T05:14:08;19.48;;;12.82;;
76380;SDS011;65202;52.520;10.528;2024-01-30T05:16:36;17.92;;;12.30;;
76380;SDS011;65202;52.520;10.528;2024-01-30T05:19:04;21.70;;;13.93;;
76380;SDS011;65202;52.520;10.528;2024-01-30T05:21:32;23.48;;;14.32;;
76380;SDS011;65202;52.520;10.528;2024-01-30T05:23:59;22.92;;;14.15;;
76380;SDS011;65202;52.520;10.528;2024-01-30T05:26:26;22.27;;;14.10;;
76380;SDS011;65202;52.520;10.528;2024-01-30T05:28:54;20.52;;;13.07;;
76380;SDS011;65202;52.520;10.528;2024-01-30T05:31:21;24.45;;;14.23;;
76380;SDS011;65202;52.520;10.528;2024-01-30T05:33:49;22.08;;;13.32;;
76380;SDS011;65202;52.520;10.528;2024-01-30T05:36:17;20.15;;;13.40;;
76380;SDS011;65202;52.520;10.528;2024-01-30T05:38:44;21.20;;;13.73;;
76380;SDS011;65202;52.520;10.528;2024-01-30T05:41:11;23.77;;;14.05;;
76380;SDS011;65202;52.520;10.528;2024-01-30T05:43:39;23.08;;;14.70;;
76380;SDS011;65202;52.520;10.528;2024-01-30T05:46:06;27.15;;;15.35;;
76380;SDS011;65202;52.520;10.528;2024-01-30T05:48:34;25.63;;;15.07;;
76380;SDS011;65202;52.520;10.528;2024-01-30T05:51:02;24.90;;;14.70;;
76380;SDS011;65202;52.520;10.528;2024-01-30T05:53:31;25.33;;;13.40;;
76380;SDS011;65202;52.520;10.528;2024-01-30T05:55:59;23.63;;;13.75;;
76380;SDS011;65202;52.520;10.528;2024-01-30T05:58:29;22.17;;;13.82;;
76380;SDS011;65202;52.520;10.528;2024-01-30T06:00:58;28.50;;;14.00;;
76380;SDS011;65202;52.520;10.528;2024-01-30T06:03:25;19.95;;;13.27;;
76380;SDS011;65202;52.520;10.528;2024-01-30T06:05:53;21.95;;;13.30;;
76380;SDS011;65202;52.520;10.528;2024-01-30T06:08:20;22.60;;;13.50;;
76380;SDS011;65202;52.520;10.528;2024-01-30T06:10:48;22.77;;;12.90;;
76380;SDS011;65202;52.520;10.528;2024-01-30T06:13:16;20.08;;;13.32;;
76380;SDS011;65202;52.520;10.528;2024-01-30T06:15:43;21.45;;;13.13;;
76380;SDS011;65202;52.520;10.528;2024-01-30T06:18:11;23.13;;;15.27;;
76380;SDS011;65202;52.520;10.528;2024-01-30T06:20:38;23.77;;;14.20;;
76380;SDS011;65202;52.520;10.528;2024-01-30T06:23:06;22.70;;;13.90;;
76380;SDS011;65202;52.520;10.528;2024-01-30T06:25:33;21.80;;;13.80;;
76380;SDS011;65202;52.520;10.528;2024-01-30T06:28:01;23.15;;;13.20;;
76380;SDS011;65202;52.520;10.528;2024-01-30T06:30:28;21.13;;;13.02;;
76380;SDS011;65202;52.520;10.528;2024-01-30T06:32:56;27.60;;;13.45;;
76380;SDS011;65202;52.520;10.528;2024-01-30T06:35:23;23.95;;;13.90;;
76380;SDS011;65202;52.520;10.528;2024-01-30T06:37:51;21.20;;;13.70;;
76380;SDS011;65202;52.520;10.528;2024-01-30T06:40:18;23.85;;;13.45;;
76380;SDS011;65202;52.520;10.528;2024-01-30T06:42:46;20.52;;;12.40;;
76380;SDS011;65202;52.520;10.528;2024-01-30T06:45:13;19.75;;;12.65;;
76380;SDS011;65202;52.520;10.528;2024-01-30T06:47:41;24.60;;;13.18;;
76380;SDS011;65202;52.520;10.528;2024-01-30T06:50:09;22.85;;;13.05;;
76380;SDS011;65202;52.520;10.528;2024-01-30T06:52:37;27.33;;;13.63;;
76380;SDS011;65202;52.520;10.528;2024-01-30T06:55:04;24.38;;;12.50;;
76380;SDS011;65202;52.520;10.528;2024-01-30T06:57:32;25.77;;;15.27;;
76380;SDS011;65202;52.520;10.528;2024-01-30T06:59:59;20.75;;;13.75;;
76380;SDS011;65202;52.520;10.528;2024-01-30T07:02:27;24.80;;;13.95;;
76380;SDS011;65202;52.520;10.528;2024-01-30T07:04:54;19.88;;;13.07;;
76380;SDS011;65202;52.520;10.528;2024-01-30T07:07:22;21.42;;;13.25;;
76380;SDS011;65202;52.520;10.528;2024-01-30T07:09:49;21.30;;;12.88;;
76380;SDS011;65202;52.520;10.528;2024-01-30T07:14:52;23.05;;;12.65;;
76380;SDS011;65202;52.520;10.528;2024-01-30T07:17:20;18.73;;;13.13;;
76380;SDS011;65202;52.520;10.528;2024-01-30T07:19:47;20.73;;;12.80;;
76380;SDS011;65202;52.520;10.528;2024-01-30T07:22:15;21.13;;;12.60;;
76380;SDS011;65202;52.520;10.528;2024-01-30T07:24:43;21.42;;;13.52;;
76380;SDS011;65202;52.520;10.528;2024-01-30T07:27:15;18.50;;;12.70;;
76380;SDS011;65202;52.520;10.528;2024-01-30T07:29:44;21.58;;;12.73;;
76380;SDS011;65202;52.520;10.528;2024-01-30T07:32:12;19.70;;;12.55;;
76380;SDS011;65202;52.520;10.528;2024-01-30T07:34:39;25.05;;;13.32;;
76380;SDS011;65202;52.520;10.528;2024-01-30T07:37:24;20.77;;;13.30;;
76380;SDS011;65202;52.520;10.528;2024-01-30T07:39:52;25.02;;;14.60;;
76380;SDS011;65202;52.520;10.528;2024-01-30T07:42:20;25.73;;;15.63;;
76380;SDS011;65202;52.520;10.528;2024-01-30T07:44:47;22.95;;;13.98;;
76380;SDS011;65202;52.520;10.528;2024-01-30T07:47:15;21.95;;;12.90;;
76380;SDS011;65202;52.520;10.528;2024-01-30T07:49:42;20.15;;;12.27;;
76380;SDS011;65202;52.520;10.528;2024-01-30T07:52:10;21.67;;;12.65;;
76380;SDS011;65202;52.520;10.528;2024-01-30T07:54:37;19.65;;;11.88;;
76380;SDS011;65202;52.520;10.528;2024-01-30T07:57:06;21.45;;;12.05;;
76380;SDS011;65202;52.520;10.528;2024-01-30T07:59:33;20.60;;;12.20;;
76380;SDS011;65202;52.520;10.528;2024-01-30T08:04:37;18.27;;;11.70;;
76380;SDS011;65202;52.520;10.528;2024-01-30T08:07:05;22.25;;;12.10;;
76380;SDS011;65202;52.520;10.528;2024-01-30T08:09:32;20.92;;;11.65;;
76380;SDS011;65202;52.520;10.528;2024-01-30T08:11:59;16.50;;;10.75;;
76380;SDS011;65202;52.520;10.528;2024-01-30T08:14:27;19.20;;;11.05;;
76380;SDS011;65202;52.520;10.528;2024-01-30T08:16:55;20.77;;;10.93;;
76380;SDS011;65202;52.520;10.528;2024-01-30T08:19:22;14.23;;;10.20;;
76380;SDS011;65202;52.520;10.528;2024-01-30T08:21:50;19.75;;;11.48;;
76380;SDS011;65202;52.520;10.528;2024-01-30T08:24:17;17.25;;;10.30;;
76380;SDS011;65202;52.520;10.528;2024-01-30T08:26:45;18.23;;;10.32;;
76380;SDS011;65202;52.520;10.528;2024-01-30T08:29:12;17.50;;;10.98;;
76380;SDS011;65202;52.520;10.528;2024-01-30T08:31:40;18.13;;;10.75;;
76380;SDS011;65202;52.520;10.528;2024-01-30T08:34:07;17.88;;;10.13;;
76380;SDS011;65202;52.520;10.528;2024-01-30T08:36:36;16.33;;;9.88;;
76380;SDS011;65202;52.520;10.528;2024-01-30T08:39:03;18.20;;;10.48;;
76380;SDS011;65202;52.520;10.528;2024-01-30T08:41:32;21.55;;;10.50;;
76380;SDS011;65202;52.520;10.528;2024-01-30T08:44:00;17.02;;;9.88;;
76380;SDS011;65202;52.520;10.528;2024-01-30T08:46:28;15.88;;;9.90;;
76380;SDS011;65202;52.520;10.528;2024-01-30T08:48:55;16.90;;;9.55;;
76380;SDS011;65202;52.520;10.528;2024-01-30T08:51:23;15.48;;;10.55;;
76380;SDS011;65202;52.520;10.528;2024-01-30T08:53:51;16.02;;;10.10;;
76380;SDS011;65202;52.520;10.528;2024-01-30T08:56:19;14.48;;;9.68;;
76380;SDS011;65202;52.520;10.528;2024-01-30T08:58:46;16.00;;;10.13;;
76380;SDS011;65202;52.520;10.528;2024-01-30T09:01:14;15.60;;;10.00;;
76380;SDS011;65202;52.520;10.528;2024-01-30T09:03:42;15.32;;;10.00;;
76380;SDS011;65202;52.520;10.528;2024-01-30T09:06:12;15.00;;;9.82;;
76380;SDS011;65202;52.520;10.528;2024-01-30T09:08:40;21.70;;;10.80;;
76380;SDS011;65202;52.520;10.528;2024-01-30T09:11:14;17.02;;;10.00;;
76380;SDS011;65202;52.520;10.528;2024-01-30T09:13:42;15.90;;;10.18;;
76380;SDS011;65202;52.520;10.528;2024-01-30T09:16:10;16.70;;;10.13;;
76380;SDS011;65202;52.520;10.528;2024-01-30T09:18:38;15.55;;;10.43;;
76380;SDS011;65202;52.520;10.528;2024-01-30T09:21:06;17.55;;;10.82;;
76380;SDS011;65202;52.520;10.528;2024-01-30T09:23:33;17.13;;;11.07;;
76380;SDS011;65202;52.520;10.528;2024-01-30T09:26:00;18.10;;;10.13;;
76380;SDS011;65202;52.520;10.528;2024-01-30T09:28:28;15.85;;;10.40;;
76380;SDS011;65202;52.520;10.528;2024-01-30T09:30:56;16.13;;;10.88;;
76380;SDS011;65202;52.520;10.528;2024-01-30T09:33:23;15.00;;;9.82;;
76380;SDS011;65202;52.520;10.528;2024-01-30T09:35:51;16.15;;;10.40;;
76380;SDS011;65202;52.520;10.528;2024-01-30T09:38:18;14.10;;;9.73;;
76380;SDS011;65202;52.520;10.528;2024-01-30T09:40:47;17.23;;;9.88;;
76380;SDS011;65202;52.520;10.528;2024-01-30T09:43:24;17.02;;;10.25;;
76380;SDS011;65202;52.520;10.528;2024-01-30T09:46:00;13.65;;;9.32;;
76380;SDS011;65202;52.520;10.528;2024-01-30T09:48:30;16.77;;;9.85;;
76380;SDS011;65202;52.520;10.528;2024-01-30T09:50:58;15.70;;;9.88;;
76380;SDS011;65202;52.520;10.528;2024-01-30T09:53:25;17.67;;;9.75;;
76380;SDS011;65202;52.520;10.528;2024-01-30T09:55:53;17.23;;;9.80;;
76380;SDS011;65202;52.520;10.528;2024-01-30T09:58:20;18.23;;;9.75;;
76380;SDS011;65202;52.520;10.528;2024-01-30T10:00:49;16.05;;;9.77;;
76380;SDS011;65202;52.520;10.528;2024-01-30T10:03:16;14.18;;;9.73;;
76380;SDS011;65202;52.520;10.528;2024-01-30T10:05:52;14.68;;;9.52;;
76380;SDS011;65202;52.520;10.528;2024-01-30T10:08:20;14.45;;;9.57;;
76380;SDS011;65202;52.520;10.528;2024-01-30T10:10:47;14.88;;;9.13;;
76380;SDS011;65202;52.520;10.528;2024-01-30T10:13:16;18.73;;;9.60;;
76380;SDS011;65202;52.520;10.528;2024-01-30T10:15:44;14.30;;;9.30;;
76380;SDS011;65202;52.520;10.528;2024-01-30T10:18:12;14.20;;;9.55;;
76380;SDS011;65202;52.520;10.528;2024-01-30T10:20:40;13.55;;;9.77;;
76380;SDS011;65202;52.520;10.528;2024-01-30T10:23:07;13.50;;;8.90;;
76380;SDS011;65202;52.520;10.528;2024-01-30T10:25:36;15.25;;;9.55;;
76380;SDS011;65202;52.520;10.528;2024-01-30T10:28:05;14.90;;;9.70;;
76380;SDS011;65202;52.520;10.528;2024-01-30T10:30:33;13.93;;;9.50;;
76380;SDS011;65202;52.520;10.528;2024-01-30T10:33:00;13.88;;;9.07;;
76380;SDS011;65202;52.520;10.528;2024-01-30T10:35:29;16.92;;;9.98;;
76380;SDS011;65202;52.520;10.528;2024-01-30T10:37:57;13.48;;;9.55;;
76380;SDS011;65202;52.520;10.528;2024-01-30T10:40:28;15.48;;;9.57;;
76380;SDS011;65202;52.520;10.528;2024-01-30T10:42:56;17.30;;;9.70;;
76380;SDS011;65202;52.520;10.528;2024-01-30T10:45:31;15.20;;;9.82;;
76380;SDS011;65202;52.520;10.528;2024-01-30T10:48:00;18.70;;;9.70;;
76380;SDS011;65202;52.520;10.528;2024-01-30T10:50:30;15.18;;;9.52;;
76380;SDS011;65202;52.520;10.528;2024-01-30T10:53:00;16.83;;;9.52;;
76380;SDS011;65202;52.520;10.528;2024-01-30T10:55:31;14.75;;;10.15;;
76380;SDS011;65202;52.520;10.528;2024-01-30T10:58:00;15.70;;;9.68;;
76380;SDS011;65202;52.520;10.528;2024-01-30T11:00:27;14.45;;;10.02;;
76380;SDS011;65202;52.520;10.528;2024-01-30T11:02:55;17.98;;;10.27;;
76380;SDS011;65202;52.520;10.528;2024-01-30T11:05:23;16.23;;;10.35;;
76380;SDS011;65202;52.520;10.528;2024-01-30T11:08:09;14.45;;;10.27;;
76380;SDS011;65202;52.520;10.528;2024-01-30T11:10:48;14.68;;;10.30;;
76380;SDS011;65202;52.520;10.528;2024-01-30T11:13:16;15.65;;;9.50;;
76380;SDS011;65202;52.520;10.528;2024-01-30T11:15:47;14.85;;;9.75;;
76380;SDS011;65202;52.520;10.528;2024-01-30T11:18:23;12.98;;;9.75;;
76380;SDS011;65202;52.520;10.528;2024-01-30T11:20:57;17.80;;;10.10;;
76380;SDS011;65202;52.520;10.528;2024-01-30T11:23:28;14.52;;;10.25;;
76380;SDS011;65202;52.520;10.528;2024-01-30T11:25:56;14.73;;;10.10;;
76380;SDS011;65202;52.520;10.528;2024-01-30T11:28:24;12.68;;;9.77;;
76380;SDS011;65202;52.520;10.528;2024-01-30T11:31:05;16.35;;;10.25;;
76380;SDS011;65202;52.520;10.528;2024-01-30T11:33:34;16.63;;;10.43;;
76380;SDS011;65202;52.520;10.528;2024-01-30T11:36:02;15.13;;;10.00;;
76380;SDS011;65202;52.520;10.528;2024-01-30T11:38:30;13.77;;;9.88;;
76380;SDS011;65202;52.520;10.528;2024-01-30T11:40:57;15.55;;;9.52;;
76380;SDS011;65202;52.520;10.528;2024-01-30T11:43:25;15.30;;;10.00;;
76380;SDS011;65202;52.520;10.528;2024-01-30T11:45:53;14.98;;;9.93;;
76380;SDS011;65202;52.520;10.528;2024-01-30T11:48:20;19.20;;;10.15;;
76380;SDS011;65202;52.520;10.528;2024-01-30T11:50:48;19.17;;;10.27;;
76380;SDS011;65202;52.520;10.528;2024-01-30T11:53:17;18.23;;;10.40;;
76380;SDS011;65202;52.520;10.528;2024-01-30T11:55:51;17.05;;;10.57;;
76380;SDS011;65202;52.520;10.528;2024-01-30T11:58:18;19.38;;;9.57;;
76380;SDS011;65202;52.520;10.528;2024-01-30T12:00:52;14.75;;;10.38;;
76380;SDS011;65202;52.520;10.528;2024-01-30T12:03:23;16.30;;;9.70;;
76380;SDS011;65202;52.520;10.528;2024-01-30T12:05:57;14.85;;;9.50;;
76380;SDS011;65202;52.520;10.528;2024-01-30T12:08:26;18.90;;;10.35;;
76380;SDS011;65202;52.520;10.528;2024-01-30T12:10:55;17.98;;;10.27;;
76380;SDS011;65202;52.520;10.528;2024-01-30T12:13:33;18.38;;;10.48;;
76380;SDS011;65202;52.520;10.528;2024-01-30T12:16:03;16.05;;;10.02;;
76380;SDS011;65202;52.520;10.528;2024-01-30T12:18:31;16.38;;;10.35;;
76380;SDS011;65202;52.520;10.528;2024-01-30T12:20:59;15.23;;;10.40;;
76380;SDS011;65202;52.520;10.528;2024-01-30T12:23:27;14.43;;;9.70;;
76380;SDS011;65202;52.520;10.528;2024-01-30T12:25:55;16.35;;;10.35;;
76380;SDS011;65202;52.520;10.528;2024-01-30T12:28:23;17.25;;;10.10;;
76380;SDS011;65202;52.520;10.528;2024-01-30T12:30:54;14.30;;;9.55;;
76380;SDS011;65202;52.520;10.528;2024-01-30T12:33:26;15.55;;;9.70;;
76380;SDS011;65202;52.520;10.528;2024-01-30T12:35:55;15.57;;;9.93;;
76380;SDS011;65202;52.520;10.528;2024-01-30T12:38:30;18.95;;;9.45;;
76380;SDS011;65202;52.520;10.528;2024-01-30T12:40:58;16.67;;;9.80;;
76380;SDS011;65202;52.520;10.528;2024-01-30T12:43:25;17.38;;;10.40;;
76380;SDS011;65202;52.520;10.528;2024-01-30T12:46:05;15.98;;;10.35;;
76380;SDS011;65202;52.520;10.528;2024-01-30T12:48:33;17.70;;;9.65;;
76380;SDS011;65202;52.520;10.528;2024-01-30T12:51:01;15.98;;;9.77;;
76380;SDS011;65202;52.520;10.528;2024-01-30T12:53:28;14.50;;;9.60;;
76380;SDS011;65202;52.520;10.528;2024-01-30T12:55:56;18.20;;;10.15;;
76380;SDS011;65202;52.520;10.528;2024-01-30T12:58:23;15.55;;;9.32;;
76380;SDS011;65202;52.520;10.528;2024-01-30T13:00:51;19.27;;;10.27;;
76380;SDS011;65202;52.520;10.528;2024-01-30T13:03:21;15.75;;;9.32;;
76380;SDS011;65202;52.520;10.528;2024-01-30T13:05:49;17.13;;;10.25;;
76380;SDS011;65202;52.520;10.528;2024-01-30T13:08:17;15.55;;;9.18;;
76380;SDS011;65202;52.520;10.528;2024-01-30T13:10:45;17.35;;;10.20;;
76380;SDS011;65202;52.520;10.528;2024-01-30T13:13:16;16.15;;;9.93;;
76380;SDS011;65202;52.520;10.528;2024-01-30T13:15:47;12.55;;;9.15;;
76380;SDS011;65202;52.520;10.528;2024-01-30T13:18:15;17.35;;;10.02;;
76380;SDS011;65202;52.520;10.528;2024-01-30T13:20:43;18.67;;;10.52;;
76380;SDS011;65202;52.520;10.528;2024-01-30T13:23:10;14.20;;;9.52;;
76380;SDS011;65202;52.520;10.528;2024-01-30T13:25:38;16.55;;;9.52;;
76380;SDS011;65202;52.520;10.528;2024-01-30T13:28:05;15.77;;;10.15;;
76380;SDS011;65202;52.520;10.528;2024-01-30T13:30:33;19.60;;;9.80;;
76380;SDS011;65202;52.520;10.528;2024-01-30T13:33:01;15.40;;;10.27;;
76380;SDS011;65202;52.520;10.528;2024-01-30T13:35:30;14.05;;;9.55;;
76380;SDS011;65202;52.520;10.528;2024-01-30T13:37:58;21.15;;;10.50;;
76380;SDS011;65202;52.520;10.528;2024-01-30T13:40:25;16.10;;;9.75;;
76380;SDS011;65202;52.520;10.528;2024-01-30T13:42:53;18.75;;;10.80;;
76380;SDS011;65202;52.520;10.528;2024-01-30T13:45:21;19.60;;;10.38;;
76380;SDS011;65202;52.520;10.528;2024-01-30T13:47:50;14.55;;;10.52;;
76380;SDS011;65202;52.520;10.528;2024-01-30T13:50:18;14.35;;;9.20;;
76380;SDS011;65202;52.520;10.528;2024-01-30T13:52:45;14.63;;;9.80;;
76380;SDS011;65202;52.520;10.528;2024-01-30T13:55:13;13.60;;;10.48;;
76380;SDS011;65202;52.520;10.528;2024-01-30T13:57:41;17.20;;;10.10;;
76380;SDS011;65202;52.520;10.528;2024-01-30T14:00:10;18.70;;;10.40;;
76380;SDS011;65202;52.520;10.528;2024-01-30T14:02:41;16.45;;;10.05;;
76380;SDS011;65202;52.520;10.528;2024-01-30T14:05:08;16.77;;;10.18;;
76380;SDS011;65202;52.520;10.528;2024-01-30T14:07:37;18.90;;;10.57;;
76380;SDS011;65202;52.520;10.528;2024-01-30T14:10:07;16.20;;;9.82;;
76380;SDS011;65202;52.520;10.528;2024-01-30T14:12:39;19.25;;;11.73;;
76380;SDS011;65202;52.520;10.528;2024-01-30T14:15:07;16.63;;;10.38;;
76380;SDS011;65202;52.520;10.528;2024-01-30T14:17:50;16.10;;;10.60;;
76380;SDS011;65202;52.520;10.528;2024-01-30T14:20:18;16.33;;;10.60;;
76380;SDS011;65202;52.520;10.528;2024-01-30T14:22:45;16.30;;;9.85;;